createdAt,value
2023-03-20T00:01:27.565Z,7.65
2023-03-20T00:03:54.445Z,8.13
2023-03-20T00:06:26.475Z,5.50
2023-03-20T00:08:54.623Z,6.18
2023-03-20T00:11:27.258Z,7.40
2023-03-20T00:13:56.311Z,7.20
2023-03-20T00:16:25.377Z,5.78
2023-03-20T00:18:52.036Z,8.70
2023-03-20T00:21:19.684Z,7.10
2023-03-20T00:23:46.343Z,8.90
2023-03-20T00:26:15.201Z,7.40
2023-03-20T00:28:44.318Z,6.35
2023-03-20T00:31:37.474Z,7.40
2023-03-20T00:34:09.935Z,6.82
2023-03-20T00:36:36.600Z,12.10
2023-03-20T00:39:04.105Z,8.35
2023-03-20T00:41:36.526Z,8.13
2023-03-20T00:44:04.658Z,8.38
2023-03-20T00:46:38.328Z,7.20
2023-03-20T00:49:05.518Z,9.77
2023-03-20T00:51:32.478Z,7.43
2023-03-20T00:53:59.287Z,7.25
2023-03-20T00:56:38.372Z,11.27
2023-03-20T00:59:05.315Z,11.32
2023-03-20T01:01:32.346Z,11.57
2023-03-20T01:03:59.998Z,12.75
2023-03-20T01:06:26.730Z,11.60
2023-03-20T01:08:53.371Z,10.23
2023-03-20T01:11:23.676Z,9.70
2023-03-20T01:13:50.536Z,10.77
2023-03-20T01:16:21.946Z,8.70
2023-03-20T01:18:49.587Z,9.88
2023-03-20T01:21:16.832Z,9.15
2023-03-20T01:23:43.530Z,9.27
2023-03-20T01:26:34.846Z,9.57
2023-03-20T01:29:01.585Z,9.50
2023-03-20T01:31:28.365Z,9.07
2023-03-20T01:33:55.054Z,9.63
2023-03-20T01:36:23.928Z,11.07
2023-03-20T01:38:55.946Z,9.13
2023-03-20T01:41:26.131Z,10.95
2023-03-20T01:43:53.378Z,8.68
2023-03-20T01:46:27.452Z,8.43
2023-03-20T01:48:54.092Z,11.85
2023-03-20T01:51:28.344Z,10.10
2023-03-20T01:53:59.912Z,12.38
2023-03-20T01:56:31.717Z,11.05
2023-03-20T01:59:08.003Z,11.65
2023-03-20T02:01:36.162Z,10.38
2023-03-20T02:04:03.766Z,9.60
2023-03-20T02:06:30.412Z,10.15
2023-03-20T02:08:57.074Z,11.18
2023-03-20T02:11:25.366Z,13.63
2023-03-20T02:13:55.494Z,12.40
2023-03-20T02:16:22.231Z,13.82
2023-03-20T02:18:51.465Z,14.38
2023-03-20T02:21:42.924Z,10.25
2023-03-20T02:24:30.748Z,14.23
2023-03-20T02:27:32.473Z,10.70
2023-03-20T02:30:40.511Z,14.25
2023-03-20T02:33:37.972Z,12.15
2023-03-20T02:36:34.873Z,12.93
2023-03-20T02:39:21.679Z,13.60
2023-03-20T02:42:15.235Z,14.07
2023-03-20T02:44:50.585Z,11.50
2023-03-20T02:47:41.864Z,11.68
2023-03-20T02:50:11.257Z,12.43
2023-03-20T02:52:48.676Z,14.10
2023-03-20T02:55:32.151Z,14.73
2023-03-20T02:58:04.942Z,12.50
2023-03-20T03:00:50.274Z,11.43
2023-03-20T03:03:33.121Z,13.20
2023-03-20T03:06:06.851Z,9.90
2023-03-20T03:08:42.493Z,13.48
2023-03-20T03:11:10.172Z,12.73
2023-03-20T03:13:42.635Z,13.00
2023-03-20T03:16:17.690Z,10.23
2023-03-20T03:18:46.488Z,14.80
2023-03-20T03:21:16.843Z,11.75
2023-03-20T03:23:47.183Z,12.93
2023-03-20T03:26:30.424Z,10.85
2023-03-20T03:29:04.756Z,12.68
2023-03-20T03:31:32.110Z,10.75
2023-03-20T03:34:01.268Z,14.88
2023-03-20T03:36:38.454Z,9.45
2023-03-20T03:39:28.962Z,12.15
2023-03-20T03:42:17.591Z,11.98
2023-03-20T03:45:05.002Z,12.10
2023-03-20T03:47:43.143Z,11.00
2023-03-20T03:50:16.719Z,13.27
2023-03-20T03:52:44.508Z,14.70
2023-03-20T03:55:22.623Z,14.82
2023-03-20T03:57:56.129Z,12.57
2023-03-20T04:00:26.097Z,16.23
2023-03-20T04:02:56.256Z,12.27
2023-03-20T04:05:27.597Z,12.43
2023-03-20T04:07:58.005Z,10.88
2023-03-20T04:10:25.193Z,14.10
2023-03-20T04:12:51.984Z,14.27
2023-03-20T04:15:18.782Z,13.07
2023-03-20T04:17:45.535Z,14.15
2023-03-20T04:20:12.996Z,15.60
2023-03-20T04:22:39.972Z,14.65
2023-03-20T04:25:08.551Z,16.75
2023-03-20T04:27:35.316Z,16.67
2023-03-20T04:30:02.015Z,18.45
2023-03-20T04:32:28.698Z,19.08
2023-03-20T04:34:55.364Z,16.77
2023-03-20T04:37:22.011Z,17.85
2023-03-20T04:39:48.701Z,19.80
2023-03-20T04:42:15.378Z,17.73
2023-03-20T04:44:42.051Z,17.17
2023-03-20T04:47:08.691Z,19.30
2023-03-20T04:49:35.344Z,20.95
2023-03-20T04:52:01.989Z,19.27
2023-03-20T04:54:28.647Z,21.50
2023-03-20T04:56:55.366Z,18.67
2023-03-20T04:59:22.078Z,20.10
2023-03-20T05:01:48.731Z,20.45
2023-03-20T05:04:15.555Z,20.70
2023-03-20T05:06:42.499Z,20.88
2023-03-20T05:09:09.643Z,18.65
2023-03-20T05:11:36.696Z,23.55
2023-03-20T05:14:03.382Z,20.30
2023-03-20T05:16:30.085Z,18.83
2023-03-20T05:18:56.807Z,20.10
2023-03-20T05:21:23.454Z,21.10
2023-03-20T05:23:50.128Z,19.55
2023-03-20T05:26:16.878Z,19.42
2023-03-20T05:28:43.669Z,23.60
2023-03-20T05:31:10.518Z,18.48
2023-03-20T05:33:38.364Z,22.42
2023-03-20T05:36:05.841Z,24.17
2023-03-20T05:38:32.728Z,26.48
2023-03-20T05:41:00.452Z,25.90
2023-03-20T05:43:27.579Z,23.92
2023-03-20T05:45:54.780Z,23.90
2023-03-20T05:48:21.921Z,20.95
2023-03-20T05:50:48.862Z,21.58
2023-03-20T05:53:15.875Z,22.88
2023-03-20T05:55:42.617Z,21.38
2023-03-20T05:58:09.361Z,25.83
2023-03-20T06:00:36.101Z,21.98
2023-03-20T06:03:02.891Z,21.42
2023-03-20T06:05:29.609Z,23.88
2023-03-20T06:07:56.325Z,24.23
2023-03-20T06:10:23.000Z,27.13
2023-03-20T06:12:49.850Z,24.27
2023-03-20T06:15:16.649Z,25.25
2023-03-20T06:17:43.310Z,29.45
2023-03-20T06:20:10.495Z,32.05
2023-03-20T06:22:37.279Z,31.13
2023-03-20T06:25:04.638Z,36.13
2023-03-20T06:27:31.426Z,42.90
2023-03-20T06:29:58.121Z,44.35
2023-03-20T06:32:24.853Z,38.30
2023-03-20T06:34:51.513Z,35.38
2023-03-20T06:37:19.673Z,33.65
2023-03-20T06:39:46.501Z,43.58
2023-03-20T06:42:16.044Z,40.17
2023-03-20T06:44:43.270Z,38.65
2023-03-20T06:47:09.977Z,39.28
2023-03-20T06:49:36.721Z,37.88
2023-03-20T06:52:03.600Z,36.17
2023-03-20T06:54:30.326Z,35.08
2023-03-20T06:56:57.006Z,45.45
2023-03-20T06:59:23.732Z,42.58
2023-03-20T07:01:50.587Z,49.72
2023-03-20T07:04:17.321Z,49.80
2023-03-20T07:06:44.179Z,59.25
2023-03-20T07:09:10.875Z,52.60
2023-03-20T07:11:37.608Z,54.33
2023-03-20T07:14:04.279Z,60.45
2023-03-20T07:16:31.167Z,56.97
2023-03-20T07:18:58.183Z,62.10
2023-03-20T07:21:25.160Z,64.50
2023-03-20T07:23:51.994Z,67.60
2023-03-20T07:26:18.814Z,67.55
2023-03-20T07:28:45.576Z,66.65
2023-03-20T07:31:24.125Z,67.93
2023-03-20T07:33:51.017Z,65.15
2023-03-20T07:36:17.920Z,64.53
2023-03-20T07:38:44.704Z,62.33
2023-03-20T07:41:11.752Z,60.28
2023-03-20T07:43:38.787Z,60.22
2023-03-20T07:46:07.236Z,61.80
2023-03-20T07:48:34.929Z,59.72
2023-03-20T07:51:02.219Z,69.82
2023-03-20T07:53:29.046Z,68.13
2023-03-20T07:55:55.958Z,64.97
2023-03-20T07:58:23.782Z,63.95
2023-03-20T08:00:50.927Z,67.93
2023-03-20T08:03:18.121Z,59.95
2023-03-20T08:05:47.230Z,53.97
2023-03-20T08:08:16.366Z,56.53
2023-03-20T08:10:44.546Z,60.17
2023-03-20T08:13:11.422Z,59.88
2023-03-20T08:15:38.817Z,55.42
2023-03-20T08:18:06.059Z,58.75
2023-03-20T08:20:33.541Z,52.33
2023-03-20T08:23:00.391Z,55.92
2023-03-20T08:25:27.209Z,56.83
2023-03-20T08:27:53.984Z,55.00
2023-03-20T08:30:21.042Z,55.58
2023-03-20T08:32:47.859Z,61.95
2023-03-20T08:35:31.896Z,60.70
2023-03-20T08:38:00.277Z,62.88
2023-03-20T08:40:27.321Z,59.10
2023-03-20T08:42:54.258Z,61.35
2023-03-20T08:45:21.170Z,56.25
2023-03-20T08:47:48.698Z,50.85
2023-03-20T08:50:16.494Z,51.38
2023-03-20T08:52:43.498Z,55.38
2023-03-20T08:55:12.115Z,53.00
2023-03-20T08:57:39.272Z,54.42
2023-03-20T09:00:07.877Z,53.78
2023-03-20T09:02:38.407Z,50.42
2023-03-20T09:05:05.907Z,51.75
2023-03-20T09:07:32.812Z,44.72
2023-03-20T09:09:59.854Z,45.63
2023-03-20T09:12:27.789Z,45.05
2023-03-20T09:14:54.613Z,42.08
2023-03-20T09:17:21.459Z,40.38
2023-03-20T09:19:48.316Z,45.60
2023-03-20T09:22:15.913Z,40.63
2023-03-20T09:24:44.697Z,38.13
2023-03-20T09:27:12.270Z,39.17
2023-03-20T09:29:43.736Z,38.25
2023-03-20T09:32:17.655Z,38.97
2023-03-20T09:34:44.524Z,38.67
2023-03-20T09:37:11.396Z,38.13
2023-03-20T09:39:40.880Z,39.60
2023-03-20T09:42:35.825Z,37.50
2023-03-20T09:45:24.375Z,35.67
2023-03-20T09:47:59.257Z,38.05
2023-03-20T09:50:34.337Z,30.90
2023-03-20T09:53:11.153Z,30.02
2023-03-20T09:55:40.951Z,29.88
2023-03-20T09:58:16.862Z,27.67
2023-03-20T10:00:46.452Z,32.25
2023-03-20T10:03:24.994Z,31.40
2023-03-20T10:05:56.061Z,35.47
2023-03-20T10:08:30.079Z,29.65
2023-03-20T10:11:19.727Z,31.58
2023-03-20T10:14:27.361Z,29.60
2023-03-20T10:16:56.943Z,31.17
2023-03-20T10:19:43.439Z,25.10
2023-03-20T10:22:25.741Z,26.20
2023-03-20T10:25:12.826Z,26.02
2023-03-20T10:27:48.579Z,25.45
2023-03-20T10:33:02.583Z,22.33
2023-03-20T10:35:39.645Z,23.35
2023-03-20T10:38:36.268Z,21.70
2023-03-20T10:43:40.527Z,24.95
2023-03-20T10:46:25.229Z,23.50
2023-03-20T10:49:14.792Z,24.38
2023-03-20T10:51:46.150Z,23.38
2023-03-20T10:54:55.491Z,22.40
2023-03-20T10:57:27.801Z,22.40
2023-03-20T10:59:57.569Z,20.35
2023-03-20T11:02:33.706Z,23.33
2023-03-20T11:05:07.578Z,22.40
2023-03-20T11:07:39.066Z,28.08
2023-03-20T11:10:06.361Z,20.27
2023-03-20T11:12:35.742Z,19.15
2023-03-20T11:15:15.551Z,18.48
2023-03-20T11:17:42.430Z,17.23
2023-03-20T11:20:19.229Z,17.85
2023-03-20T11:22:50.313Z,18.27
2023-03-20T11:25:30.865Z,19.20
2023-03-20T11:28:18.439Z,16.98
2023-03-20T11:31:03.615Z,23.10
2023-03-20T11:33:31.994Z,20.42
2023-03-20T11:35:59.897Z,18.20
2023-03-20T11:38:29.781Z,19.15
2023-03-20T11:40:57.637Z,22.38
2023-03-20T11:43:27.922Z,17.45
2023-03-20T11:46:00.452Z,18.08
2023-03-20T11:48:38.438Z,17.75
2023-03-20T11:51:20.380Z,20.05
2023-03-20T11:53:48.193Z,17.40
2023-03-20T11:56:23.094Z,19.35
2023-03-20T11:58:59.871Z,16.02
2023-03-20T12:01:28.837Z,16.40
2023-03-20T12:03:55.737Z,21.10
2023-03-20T12:06:27.703Z,22.73
2023-03-20T12:09:02.853Z,17.20
2023-03-20T12:15:51.774Z,19.42
2023-03-20T12:18:38.922Z,18.23
2023-03-20T12:21:19.898Z,23.00
2023-03-20T12:24:05.227Z,20.38
2023-03-20T12:26:46.807Z,19.65
2023-03-20T12:29:31.750Z,19.33
2023-03-20T12:33:00.313Z,20.05
2023-03-20T12:35:37.929Z,17.80
2023-03-20T12:38:21.990Z,21.65
2023-03-20T12:40:54.078Z,19.48
2023-03-20T12:43:40.349Z,23.42
2023-03-20T12:49:03.153Z,20.80
2023-03-20T12:51:59.241Z,19.42
2023-03-20T12:54:51.176Z,22.75
2023-03-20T12:58:09.027Z,21.92
2023-03-20T13:01:20.963Z,22.98
2023-03-20T13:03:51.805Z,24.08
2023-03-20T13:06:45.148Z,22.40
2023-03-20T13:09:20.724Z,23.05
2023-03-20T13:12:45.111Z,18.77
2023-03-20T13:15:21.203Z,24.42
2023-03-20T13:18:03.204Z,23.10
2023-03-20T13:20:50.364Z,24.77
2023-03-20T13:23:34.975Z,24.55
2023-03-20T13:26:07.424Z,27.55
2023-03-20T13:28:52.944Z,23.17
2023-03-20T13:31:47.512Z,21.98
2023-03-20T13:34:38.584Z,25.38
2023-03-20T13:37:25.030Z,25.67
2023-03-20T13:40:12.761Z,25.87
2023-03-20T13:42:56.893Z,25.73
2023-03-20T13:45:28.932Z,27.48
2023-03-20T13:48:00.235Z,28.52
2023-03-20T13:51:05.492Z,27.58
2023-03-20T13:53:45.722Z,27.30
2023-03-20T13:56:47.290Z,24.83
2023-03-20T13:59:41.846Z,28.17
2023-03-20T14:02:29.796Z,36.63
2023-03-20T14:05:22.438Z,27.85
2023-03-20T14:07:54.942Z,27.42
2023-03-20T14:10:24.656Z,30.97
2023-03-20T14:12:56.435Z,30.02
2023-03-20T14:15:33.459Z,32.90
2023-03-20T14:18:11.796Z,29.35
2023-03-20T14:20:41.278Z,29.38
2023-03-20T14:23:20.468Z,30.75
2023-03-20T14:25:48.828Z,28.10
2023-03-20T14:28:17.642Z,32.15
2023-03-20T14:30:50.709Z,29.20
2023-03-20T14:33:17.714Z,27.70
2023-03-20T14:35:46.099Z,34.88
2023-03-20T14:38:35.717Z,29.77
2023-03-20T14:41:41.956Z,29.88
2023-03-20T14:45:07.324Z,31.88
2023-03-20T14:48:21.462Z,30.45
2023-03-20T14:51:08.576Z,32.05
2023-03-20T14:53:36.184Z,33.10
2023-03-20T14:56:36.550Z,30.13
2023-03-20T14:59:22.626Z,32.53
2023-03-20T15:01:58.943Z,31.90
2023-03-20T15:04:54.162Z,34.47
2023-03-20T15:07:29.996Z,35.00
2023-03-20T15:10:17.260Z,32.80
2023-03-20T15:13:44.880Z,34.20
2023-03-20T15:19:27.936Z,35.22
2023-03-20T15:25:08.133Z,39.05
2023-03-20T15:31:33.617Z,34.25
2023-03-20T15:34:22.812Z,34.05
2023-03-20T15:37:11.172Z,35.22
2023-03-20T15:42:20.821Z,33.00
2023-03-20T15:44:50.293Z,39.33
2023-03-20T15:47:28.291Z,35.72
2023-03-20T15:50:00.094Z,36.58
2023-03-20T15:52:46.313Z,33.97
2023-03-20T15:57:44.575Z,34.95
2023-03-20T16:00:38.703Z,32.75
2023-03-20T16:03:08.391Z,34.63
2023-03-20T16:05:35.452Z,34.35
2023-03-20T16:08:22.037Z,31.88
2023-03-20T16:10:48.855Z,31.58
2023-03-20T16:13:16.746Z,32.85
2023-03-20T16:15:44.557Z,27.70
2023-03-20T16:18:17.587Z,32.10
2023-03-20T16:20:51.304Z,30.98
2023-03-20T16:23:45.849Z,28.83
2023-03-20T16:26:17.613Z,27.08
2023-03-20T16:28:51.273Z,30.40
2023-03-20T16:31:31.002Z,27.45
2023-03-20T16:34:23.215Z,27.42
2023-03-20T16:36:58.043Z,28.65
2023-03-20T16:39:28.536Z,30.57
2023-03-20T16:42:09.514Z,29.08
2023-03-20T16:44:36.768Z,30.08
2023-03-20T16:47:36.926Z,30.35
2023-03-20T16:50:33.573Z,29.55
2023-03-20T16:55:34.118Z,29.70
2023-03-20T16:58:05.452Z,29.27
2023-03-20T17:00:52.810Z,30.60
2023-03-20T17:03:26.586Z,31.48
2023-03-20T17:06:24.427Z,29.90
2023-03-20T17:09:08.600Z,26.95
2023-03-20T17:11:38.398Z,28.88
2023-03-20T17:14:05.561Z,33.35
2023-03-20T17:16:33.129Z,33.38
2023-03-20T17:19:11.229Z,28.92
2023-03-20T17:21:38.500Z,29.63
2023-03-20T17:24:07.062Z,30.23
2023-03-20T17:26:33.959Z,30.10
2023-03-20T17:29:00.801Z,29.60
2023-03-20T17:31:27.612Z,31.95
2023-03-20T17:33:54.641Z,29.75
2023-03-20T17:36:25.271Z,31.90
2023-03-20T17:38:54.770Z,27.85
2023-03-20T17:41:21.945Z,28.52
2023-03-20T17:43:49.458Z,28.98
2023-03-20T17:46:21.776Z,30.02
2023-03-20T17:48:49.621Z,29.40
2023-03-20T17:51:16.905Z,31.13
2023-03-20T17:53:43.595Z,34.78
2023-03-20T17:56:13.222Z,28.42
2023-03-20T17:58:41.117Z,29.88
2023-03-20T18:01:09.571Z,28.85
2023-03-20T18:03:36.560Z,30.27
2023-03-20T18:06:04.756Z,28.58
2023-03-20T18:08:31.569Z,33.00
2023-03-20T18:10:58.936Z,27.42
2023-03-20T18:13:26.588Z,28.80
2023-03-20T18:15:58.594Z,28.77
2023-03-20T18:18:25.847Z,26.98
2023-03-20T18:20:52.632Z,26.30
2023-03-20T18:23:19.379Z,28.42
2023-03-20T18:25:46.116Z,29.70
2023-03-20T18:28:15.447Z,27.67
2023-03-20T18:30:42.239Z,27.60
2023-03-20T18:33:10.640Z,28.50
2023-03-20T18:35:38.393Z,26.13
2023-03-20T18:38:05.375Z,28.40
2023-03-20T18:40:35.356Z,27.67
2023-03-20T18:43:04.786Z,30.17
2023-03-20T18:45:32.657Z,28.67
2023-03-20T18:48:00.151Z,27.88
2023-03-20T18:50:37.549Z,27.42
2023-03-20T18:53:08.737Z,28.08
2023-03-20T18:55:36.901Z,30.30
2023-03-20T18:58:04.229Z,29.48
2023-03-20T19:00:37.176Z,29.42
2023-03-20T19:03:04.595Z,24.27
2023-03-20T19:05:31.677Z,26.85
2023-03-20T19:07:58.983Z,27.55
2023-03-20T19:10:36.158Z,27.95
2023-03-20T19:13:05.245Z,27.45
2023-03-20T19:15:34.197Z,30.02
2023-03-20T19:18:02.966Z,25.73
2023-03-20T19:20:46.737Z,28.95
2023-03-20T19:23:15.190Z,25.70
2023-03-20T19:25:44.252Z,25.85
2023-03-20T19:28:21.916Z,31.48
2023-03-20T19:30:51.628Z,25.65
2023-03-20T19:33:19.262Z,27.15
2023-03-20T19:36:11.769Z,32.92
2023-03-20T19:38:34.833Z,28.80
2023-03-20T19:41:02.002Z,27.92
2023-03-20T19:43:29.430Z,33.25
2023-03-20T19:45:59.568Z,31.25
2023-03-20T19:48:46.165Z,31.50
2023-03-20T19:51:18.609Z,29.92
2023-03-20T19:53:47.704Z,27.45
2023-03-20T19:56:16.324Z,33.13
2023-03-20T19:58:43.460Z,26.52
2023-03-20T20:01:20.101Z,25.85
2023-03-20T20:03:48.020Z,28.70
2023-03-20T20:06:15.945Z,30.65
2023-03-20T20:08:48.696Z,32.17
2023-03-20T20:11:17.726Z,31.20
2023-03-20T20:16:31.731Z,27.42
2023-03-20T20:18:58.703Z,26.05
2023-03-20T20:24:12.438Z,27.20
2023-03-20T20:26:47.861Z,27.38
2023-03-20T20:29:20.481Z,29.10
2023-03-20T20:31:47.700Z,27.80
2023-03-20T20:35:21.967Z,26.20
2023-03-20T20:37:47.470Z,26.35
2023-03-20T20:39:49.419Z,27.10
2023-03-20T20:42:17.415Z,25.85
2023-03-20T20:44:44.801Z,27.50
2023-03-20T20:47:12.304Z,22.23
2023-03-20T20:49:39.278Z,25.00
2023-03-20T20:52:06.454Z,24.48
2023-03-20T20:54:33.718Z,21.30
2023-03-20T20:57:01.030Z,22.40
2023-03-20T20:59:27.944Z,19.13
2023-03-20T21:01:54.708Z,20.73
2023-03-20T21:04:21.695Z,19.98
2023-03-20T21:07:09.868Z,23.17
2023-03-20T21:09:35.666Z,19.83
2023-03-20T21:12:04.578Z,20.15
2023-03-20T21:14:31.510Z,21.40
2023-03-20T21:16:58.478Z,21.13
2023-03-20T21:19:27.946Z,21.90
2023-03-20T21:21:54.728Z,20.67
2023-03-20T21:24:37.081Z,19.73
2023-03-20T21:27:08.472Z,19.20
2023-03-20T21:39:56.616Z,17.67
2023-03-20T21:42:23.349Z,18.08
2023-03-20T21:46:02.727Z,18.45
2023-03-20T21:50:52.504Z,21.08
2023-03-20T21:54:07.379Z,20.05
2023-03-20T21:56:41.712Z,20.13
2023-03-20T21:59:24.115Z,16.25
2023-03-20T22:02:02.397Z,19.52
2023-03-20T22:05:16.335Z,21.42
2023-03-20T22:07:38.441Z,21.33
2023-03-20T22:10:34.537Z,15.40
2023-03-20T22:16:10.043Z,16.98
2023-03-20T22:19:11.942Z,16.08
2023-03-20T22:38:24.351Z,20.02
2023-03-20T22:46:19.584Z,19.13
2023-03-20T22:48:50.018Z,14.05
2023-03-20T22:51:18.411Z,15.80
2023-03-20T22:53:47.207Z,15.15
2023-03-20T22:56:14.263Z,14.40
2023-03-20T22:58:43.644Z,16.80
2023-03-20T23:01:11.182Z,15.50
2023-03-20T23:03:41.866Z,17.30
2023-03-20T23:06:10.465Z,14.23
2023-03-20T23:08:48.091Z,14.98
2023-03-20T23:11:17.378Z,14.45
2023-03-20T23:13:44.946Z,14.35
2023-03-20T23:16:12.127Z,14.50
2023-03-20T23:18:38.892Z,14.30
2023-03-20T23:21:05.961Z,13.40
2023-03-20T23:23:32.791Z,14.57
2023-03-20T23:26:11.271Z,13.43
2023-03-20T23:28:38.951Z,14.60
2023-03-20T23:31:14.186Z,16.05
2023-03-20T23:33:43.168Z,11.82
2023-03-20T23:36:21.367Z,12.70
2023-03-20T23:38:55.493Z,18.30
2023-03-20T23:41:36.753Z,14.52
2023-03-20T23:44:09.301Z,14.55
2023-03-20T23:46:35.943Z,13.98
2023-03-20T23:49:02.877Z,13.25
2023-03-20T23:51:29.645Z,18.38
2023-03-20T23:53:56.393Z,15.98
2023-03-20T23:56:23.099Z,15.27
2023-03-20T23:58:58.283Z,15.00
